createdAt,value
2019-04-10T00:00:55.107Z,83
2019-04-10T00:05:54.473Z,83
2019-04-10T00:10:54.365Z,83
2019-04-10T00:15:54.673Z,84
2019-04-10T00:20:54.121Z,84
2019-04-10T00:25:54.401Z,84
2019-04-10T00:30:53.699Z,84
2019-04-10T00:35:54.305Z,84
2019-04-10T00:40:53.739Z,84
2019-04-10T00:45:54.210Z,84
2019-04-10T00:50:53.661Z,84
2019-04-10T00:55:54.377Z,84
2019-04-10T01:00:53.738Z,84
2019-04-10T01:05:54.333Z,85
2019-04-10T01:10:54.677Z,85
2019-04-10T01:15:55.423Z,85
2019-04-10T01:20:54.433Z,85
2019-04-10T01:25:54.809Z,85
2019-04-10T01:30:54.874Z,85
2019-04-10T01:35:54.418Z,86
2019-04-10T01:40:53.907Z,86
2019-04-10T01:45:54.252Z,86
2019-04-10T01:50:53.688Z,86
2019-04-10T01:55:54.225Z,86
2019-04-10T02:00:54.182Z,86
2019-04-10T02:05:54.799Z,86
2019-04-10T02:10:53.882Z,86
2019-04-10T02:15:54.519Z,86
2019-04-10T02:20:53.922Z,86
2019-04-10T02:25:54.675Z,87
2019-04-10T02:30:54.646Z,87
2019-04-10T02:35:54.877Z,87
2019-04-10T02:40:55.521Z,87
2019-04-10T02:45:55.793Z,87
2019-04-10T02:50:55.450Z,87
2019-04-10T02:55:55.639Z,87
2019-04-10T03:00:54.883Z,87
2019-04-10T03:05:56.442Z,87
2019-04-10T03:11:00.450Z,87
2019-04-10T03:15:55.725Z,88
2019-04-10T03:20:54.412Z,88
2019-04-10T03:25:54.068Z,88
2019-04-10T03:30:56.449Z,88
2019-04-10T03:35:54.858Z,88
2019-04-10T03:40:54.288Z,88
2019-04-10T03:45:55.104Z,88
2019-04-10T03:50:54.465Z,88
2019-04-10T03:55:53.877Z,88
2019-04-10T04:00:54.327Z,88
2019-04-10T04:05:55.109Z,88
2019-04-10T04:10:55.159Z,88
2019-04-10T04:15:54.704Z,89
2019-04-10T04:20:55.050Z,89
2019-04-10T04:25:54.784Z,89
2019-04-10T04:30:53.949Z,89
2019-04-10T04:35:53.862Z,89
2019-04-10T04:40:54.881Z,89
2019-04-10T04:45:55.313Z,89
2019-04-10T04:50:54.438Z,89
2019-04-10T04:55:55.451Z,89
2019-04-10T05:00:54.839Z,89
2019-04-10T05:05:54.357Z,89
2019-04-10T05:10:54.089Z,89
2019-04-10T05:15:55.399Z,90
2019-04-10T05:20:54.840Z,90
2019-04-10T05:25:54.296Z,90
2019-04-10T05:30:54.758Z,90
2019-04-10T05:35:55.010Z,90
2019-04-10T05:40:55.170Z,90
2019-04-10T05:45:55.130Z,91
2019-04-10T05:50:59.853Z,91
2019-04-10T05:55:54.228Z,91
2019-04-10T06:00:54.035Z,91
2019-04-10T06:05:54.880Z,92
2019-04-10T06:10:54.666Z,92
2019-04-10T06:15:55.125Z,93
2019-04-10T06:20:54.725Z,93
2019-04-10T06:25:54.321Z,93
2019-04-10T06:30:54.762Z,93
2019-04-10T06:35:55.137Z,94
2019-04-10T06:40:54.565Z,94
2019-04-10T06:45:54.233Z,94
2019-04-10T06:50:55.618Z,94
2019-04-10T06:55:54.437Z,94
2019-04-10T07:00:56.173Z,94
2019-04-10T07:06:06.378Z,95
2019-04-10T07:11:01.817Z,95
2019-04-10T07:15:57.682Z,94
2019-04-10T07:20:59.309Z,94
2019-04-10T07:25:55.053Z,94
2019-04-10T07:30:56.859Z,94
2019-04-10T07:35:56.493Z,93
2019-04-10T07:40:54.739Z,93
2019-04-10T07:45:56.638Z,92
2019-04-10T07:50:55.794Z,92
2019-04-10T07:56:02.273Z,89
2019-04-10T08:00:54.557Z,89
2019-04-10T08:05:54.751Z,83
2019-04-10T08:10:55.099Z,83
2019-04-10T08:15:54.958Z,78
2019-04-10T08:20:55.166Z,78
2019-04-10T08:25:54.559Z,73
2019-04-10T08:30:55.074Z,73
2019-04-10T08:35:54.778Z,69
2019-04-10T08:40:54.652Z,69
2019-04-10T08:45:55.128Z,67
2019-04-10T08:50:54.691Z,67
2019-04-10T08:55:54.644Z,65
2019-04-10T09:00:54.569Z,65
2019-04-10T09:05:55.216Z,67
2019-04-10T09:10:54.579Z,67
2019-04-10T09:15:54.578Z,61
2019-04-10T09:20:55.172Z,61
2019-04-10T09:25:55.477Z,59
2019-04-10T09:30:55.359Z,59
2019-04-10T09:35:55.156Z,57
2019-04-10T09:40:55.296Z,57
2019-04-10T09:45:55.725Z,54
2019-04-10T09:50:54.218Z,54
2019-04-10T09:55:54.857Z,54
2019-04-10T10:00:54.479Z,54
2019-04-10T10:05:55.057Z,54
2019-04-10T10:10:55.515Z,54
2019-04-10T10:15:54.731Z,51
2019-04-10T10:20:54.437Z,51
2019-04-10T10:25:55.390Z,50
2019-04-10T10:30:55.717Z,50
2019-04-10T10:35:55.607Z,52
2019-04-10T10:40:54.854Z,52
2019-04-10T10:45:55.445Z,54
2019-04-10T10:50:56.118Z,54
2019-04-10T10:55:54.520Z,53
2019-04-10T11:00:55.675Z,53
2019-04-10T11:05:55.130Z,50
2019-04-10T11:10:57.210Z,50
2019-04-10T11:15:54.934Z,48
2019-04-10T11:20:59.262Z,48
2019-04-10T11:25:55.882Z,48
2019-04-10T11:30:54.462Z,48
2019-04-10T11:35:55.250Z,47
2019-04-10T11:40:57.400Z,47
2019-04-10T11:45:58.133Z,47
2019-04-10T11:50:59.026Z,47
2019-04-10T11:55:56.974Z,46
2019-04-10T12:00:57.423Z,46
2019-04-10T12:05:57.073Z,44
2019-04-10T12:15:54.743Z,46
2019-04-10T12:20:55.593Z,46
2019-04-10T12:25:55.673Z,45
2019-04-10T12:30:55.461Z,45
2019-04-10T12:35:55.980Z,43
2019-04-10T12:40:55.148Z,43
2019-04-10T12:45:54.837Z,44
2019-04-10T12:50:55.420Z,44
2019-04-10T12:55:55.041Z,44
2019-04-10T13:00:54.487Z,44
2019-04-10T13:05:55.667Z,44
2019-04-10T13:10:54.419Z,44
2019-04-10T13:15:55.962Z,43
2019-04-10T13:20:55.798Z,43
2019-04-10T13:25:59.800Z,44
2019-04-10T13:30:56.575Z,44
2019-04-10T13:35:55.451Z,43
2019-04-10T13:40:54.789Z,43
2019-04-10T13:45:56.186Z,46
2019-04-10T13:50:54.905Z,46
2019-04-10T13:55:54.755Z,47
2019-04-10T14:00:55.324Z,47
2019-04-10T14:05:54.880Z,47
2019-04-10T14:10:55.014Z,47
2019-04-10T14:15:56.045Z,45
2019-04-10T14:20:55.499Z,45
2019-04-10T14:25:56.025Z,46
2019-04-10T14:30:54.496Z,46
2019-04-10T14:35:55.754Z,47
2019-04-10T14:40:55.608Z,47
2019-04-10T14:45:54.958Z,45
2019-04-10T14:50:55.379Z,45
2019-04-10T14:55:54.983Z,45
2019-04-10T15:00:55.438Z,45
2019-04-10T15:05:56.773Z,46
2019-04-10T15:10:55.405Z,46
2019-04-10T15:15:54.815Z,43
2019-04-10T15:20:56.455Z,43
2019-04-10T15:25:55.476Z,46
2019-04-10T15:30:55.124Z,46
2019-04-10T15:35:55.470Z,43
2019-04-10T15:40:54.795Z,43
2019-04-10T15:45:55.406Z,42
2019-04-10T15:50:55.903Z,42
2019-04-10T15:55:55.897Z,43
2019-04-10T16:00:55.252Z,43
2019-04-10T16:05:55.866Z,43
2019-04-10T16:10:55.479Z,43
2019-04-10T16:15:54.822Z,44
2019-04-10T16:20:55.272Z,44
2019-04-10T16:25:54.684Z,45
2019-04-10T16:30:55.212Z,45
2019-04-10T16:35:54.833Z,46
2019-04-10T16:40:56.289Z,46
2019-04-10T16:45:55.151Z,48
2019-04-10T16:50:56.151Z,48
2019-04-10T16:55:54.841Z,49
2019-04-10T17:00:55.899Z,49
2019-04-10T17:05:55.562Z,51
2019-04-10T17:10:55.345Z,51
2019-04-10T17:15:55.702Z,54
2019-04-10T17:20:55.233Z,54
2019-04-10T17:25:54.916Z,57
2019-04-10T17:30:55.297Z,57
2019-04-10T17:35:55.979Z,58
2019-04-10T17:40:57.078Z,58
2019-04-10T17:45:55.257Z,59
2019-04-10T17:50:55.488Z,59
2019-04-10T17:55:55.950Z,61
2019-04-10T18:00:55.624Z,61
2019-04-10T18:05:55.267Z,62
2019-04-10T18:10:56.781Z,62
2019-04-10T18:15:55.566Z,63
2019-04-10T18:20:56.082Z,63
2019-04-10T18:25:55.556Z,63
2019-04-10T18:30:56.481Z,63
2019-04-10T18:35:55.408Z,65
2019-04-10T18:41:00.525Z,65
2019-04-10T18:46:05.098Z,66
2019-04-10T18:50:55.712Z,66
2019-04-10T18:55:56.507Z,66
2019-04-10T19:00:54.959Z,66
2019-04-10T19:05:56.212Z,67
2019-04-10T19:11:09.527Z,67
2019-04-10T19:15:55.449Z,68
2019-04-10T19:20:56.585Z,68
2019-04-10T19:25:55.097Z,69
2019-04-10T19:30:55.413Z,69
2019-04-10T19:35:55.358Z,70
2019-04-10T19:40:54.799Z,70
2019-04-10T19:45:56.379Z,71
2019-04-10T19:50:55.870Z,71
2019-04-10T19:55:56.028Z,72
2019-04-10T20:00:55.458Z,72
2019-04-10T20:05:55.593Z,74
2019-04-10T20:10:55.385Z,74
2019-04-10T20:15:55.601Z,75
2019-04-10T20:20:55.538Z,75
2019-04-10T20:25:56.835Z,76
2019-04-10T20:30:56.466Z,76
2019-04-10T20:35:56.395Z,77
2019-04-10T20:40:55.021Z,77
2019-04-10T20:45:55.922Z,79
2019-04-10T20:50:57.203Z,79
2019-04-10T20:55:55.028Z,79
2019-04-10T21:00:55.524Z,79
2019-04-10T21:05:56.300Z,80
2019-04-10T21:10:56.954Z,80
2019-04-10T21:15:55.313Z,80
2019-04-10T21:20:55.653Z,80
2019-04-10T21:25:55.378Z,80
2019-04-10T21:30:56.668Z,80
2019-04-10T21:35:55.440Z,80
2019-04-10T21:40:55.887Z,80
2019-04-10T21:45:55.440Z,80
2019-04-10T21:50:54.999Z,80
2019-04-10T21:55:55.765Z,80
2019-04-10T22:00:55.211Z,80
2019-04-10T22:05:55.377Z,79
2019-04-10T22:10:57.330Z,79
2019-04-10T22:15:55.488Z,79
2019-04-10T22:20:57.151Z,79
2019-04-10T22:25:56.341Z,79
2019-04-10T22:30:55.815Z,79
2019-04-10T22:35:55.996Z,80
2019-04-10T22:40:56.036Z,80
2019-04-10T22:45:55.374Z,80
2019-04-10T22:50:55.814Z,80
2019-04-10T22:55:56.255Z,79
2019-04-10T23:00:55.898Z,79
2019-04-10T23:05:56.519Z,79
2019-04-10T23:10:55.217Z,79
2019-04-10T23:15:56.122Z,78
2019-04-10T23:20:57.029Z,78
2019-04-10T23:25:56.407Z,78
2019-04-10T23:30:55.697Z,78
2019-04-10T23:35:56.163Z,77
2019-04-10T23:40:55.335Z,77
2019-04-10T23:45:55.847Z,77
2019-04-10T23:50:55.236Z,77
2019-04-10T23:55:56.554Z,77
